Portada
METAR-TAF:

METAR-TAF

Aeropuertos :

Aeropuerto Internacional de Maiquetía Simón Bolívar

Caracas, Venezuela

latitud: 10-36N, longitud: 066-59W, altitud: 43 m

Observación

El informe se hizo hace 14 minutos, a las 08:00 UTC
Viento 3 kt del este
Temperatura 23°C
Humedad 83%
Presión 1009 hPa
Visibilidad 10 km o más
Escasas nubes a una altura de 1600 ft

METAR: SVMI 220800Z 09003KT 9999 FEW016 23/20 Q1009

Hora: 04:14 (08:14 UTC)

Pronóstico

El informe se hizo hace 4 horas y 14 minutos, a las 04:00 UTC
Pronóstico válido del 22 a las 06 UTC al 23 a las 06 UTC
Viento 2 kt del este
Visibilidad 10 km o más
Escasas nubes a una altura de 1600 ft
Evolucionando progresivamente
del 22 a las 06 UTC al 22 a las 10 UTC
Viento 4 kt del este
Visibilidad 10 km o más
Nubes dispersas a una altura de 1600 ft

TAF: SVMI 220400Z 2206/2306 09002KT 9999 FEW016 TX31/19Z TN23/09Z BECMG 2206/2210 09004KT 9999 SCT016

Observaciones y pronósticos meteorológicos de más de 4000 aeropuertos (mensajes METAR y TAF).

Los puntos amarillos y rojos representan las estaciones disponibles.

Ponga el ratón en el punto deseado para ver el nombre de la estación.

Haga clic para ver las observaciones y los pronósticos meteorológicos.

Para cambiar el mapa : haga clic en los botones verdes con una cruz de color negro para hacer un zoom, en el botón verde con un guión para alejar o en las flechas verdes para mapas adyacentes.


METAR-TAF: